createdAt,value
2022-08-20T00:00:08.445Z,0.109
2022-08-20T00:01:07.467Z,0.109
2022-08-20T00:02:07.757Z,0
2022-08-20T00:03:07.048Z,0.219
2022-08-20T00:04:07.238Z,0.109
2022-08-20T00:05:07.891Z,0
2022-08-20T00:06:07.437Z,0.109
2022-08-20T00:07:07.999Z,0.109
2022-08-20T00:08:07.629Z,0
2022-08-20T00:09:07.393Z,0
2022-08-20T00:10:06.953Z,0
2022-08-20T00:11:07.466Z,0
2022-08-20T00:12:07.164Z,0.109
2022-08-20T00:13:07.369Z,0.109
2022-08-20T00:14:07.529Z,0.219
2022-08-20T00:15:08.492Z,0
2022-08-20T00:16:07.705Z,0
2022-08-20T00:17:07.141Z,0
2022-08-20T00:18:07.614Z,0
2022-08-20T00:19:07.530Z,0
2022-08-20T00:20:06.846Z,0
2022-08-20T00:21:07.322Z,0
2022-08-20T00:22:07.403Z,0
2022-08-20T00:23:10.444Z,0
2022-08-20T00:24:07.283Z,0
2022-08-20T00:25:07.422Z,0
2022-08-20T00:26:07.899Z,0
2022-08-20T00:27:07.425Z,0
2022-08-20T00:28:08.083Z,0.109
2022-08-20T00:29:07.353Z,0
2022-08-20T00:30:07.868Z,0
2022-08-20T00:31:07.365Z,0
2022-08-20T00:32:07.781Z,0
2022-08-20T00:33:07.213Z,0
2022-08-20T00:34:07.458Z,0
2022-08-20T00:35:07.591Z,0
2022-08-20T00:36:07.487Z,0.109
2022-08-20T00:37:07.789Z,0
2022-08-20T00:38:07.174Z,0
2022-08-20T00:39:07.352Z,0
2022-08-20T00:40:08.106Z,0.109
2022-08-20T00:41:07.434Z,0
2022-08-20T00:42:07.486Z,0
2022-08-20T00:43:07.473Z,0
2022-08-20T00:44:07.710Z,0
2022-08-20T00:45:07.348Z,0
2022-08-20T00:46:07.654Z,0
2022-08-20T00:47:07.100Z,0
2022-08-20T00:48:07.397Z,0.100
2022-08-20T00:49:07.414Z,0
2022-08-20T00:50:07.589Z,0.109
2022-08-20T00:51:07.566Z,0
2022-08-20T00:52:07.864Z,0
2022-08-20T00:53:07.242Z,0
2022-08-20T00:54:07.652Z,0
2022-08-20T00:55:07.726Z,0.109
2022-08-20T00:56:06.855Z,0
2022-08-20T00:57:07.134Z,0.109
2022-08-20T00:58:07.786Z,0
2022-08-20T00:59:07.537Z,0
2022-08-20T01:00:08.742Z,0
2022-08-20T01:01:07.128Z,0
2022-08-20T01:02:07.857Z,0
2022-08-20T01:03:07.269Z,0
2022-08-20T01:04:07.502Z,0
2022-08-20T01:05:07.548Z,0
2022-08-20T01:06:07.680Z,0
2022-08-20T01:07:07.107Z,0.109
2022-08-20T01:08:07.170Z,0
2022-08-20T01:09:07.541Z,0
2022-08-20T01:10:07.927Z,0
2022-08-20T01:11:07.228Z,0
2022-08-20T01:12:07.561Z,0.109
2022-08-20T01:13:07.630Z,0
2022-08-20T01:14:07.613Z,0
2022-08-20T01:15:08.112Z,0.109
2022-08-20T01:16:07.355Z,0
2022-08-20T01:17:07.801Z,0
2022-08-20T01:18:07.095Z,0.109
2022-08-20T01:19:30.035Z,0.109
2022-08-20T01:20:07.552Z,0
2022-08-20T01:24:07.779Z,0
2022-08-20T01:25:07.330Z,0
2022-08-20T01:26:07.714Z,0
2022-08-20T01:27:08.082Z,0.109
2022-08-20T01:28:07.314Z,0
2022-08-20T01:29:07.663Z,0
2022-08-20T01:30:08.235Z,0
2022-08-20T01:31:07.915Z,0
2022-08-20T01:32:07.374Z,0
2022-08-20T01:33:07.426Z,0
2022-08-20T01:34:07.465Z,0
2022-08-20T01:35:07.477Z,0
2022-08-20T01:36:08.007Z,0
2022-08-20T01:37:07.210Z,0.219
2022-08-20T01:38:07.352Z,0
2022-08-20T01:39:07.424Z,0
2022-08-20T01:40:09.326Z,0
2022-08-20T01:41:07.421Z,0
2022-08-20T01:42:07.631Z,0.109
2022-08-20T01:43:08.048Z,0
2022-08-20T01:44:09.200Z,0
2022-08-20T01:45:07.445Z,0
2022-08-20T01:46:07.608Z,0.109
2022-08-20T01:47:06.705Z,0
2022-08-20T01:48:07.600Z,0.109
2022-08-20T01:49:07.061Z,0
2022-08-20T01:50:07.442Z,0
2022-08-20T01:51:07.625Z,0
2022-08-20T01:52:07.685Z,0.109
2022-08-20T01:53:07.036Z,0.219
2022-08-20T01:54:07.521Z,0
2022-08-20T01:55:07.534Z,0
2022-08-20T01:56:07.506Z,0.340
2022-08-20T01:57:07.597Z,0
2022-08-20T01:58:06.877Z,0
2022-08-20T01:59:06.966Z,0
2022-08-20T02:00:07.673Z,0
2022-08-20T02:01:07.168Z,0
2022-08-20T02:02:07.645Z,0
2022-08-20T02:03:07.656Z,0
2022-08-20T02:04:07.532Z,0.109
2022-08-20T02:05:08.118Z,0.109
2022-08-20T02:06:07.274Z,0.109
2022-08-20T02:07:07.374Z,0.219
2022-08-20T02:08:07.438Z,0.109
2022-08-20T02:09:07.403Z,0.109
2022-08-20T02:10:07.132Z,0.109
2022-08-20T02:11:07.195Z,0.340
2022-08-20T02:12:07.358Z,0.109
2022-08-20T02:13:07.682Z,0
2022-08-20T02:14:12.101Z,0
2022-08-20T02:15:07.920Z,0
2022-08-20T02:16:07.362Z,0.560
2022-08-20T02:17:07.844Z,0.239
2022-08-20T02:18:08.111Z,0.100
2022-08-20T02:19:07.852Z,0.219
2022-08-20T02:20:07.257Z,0.239
2022-08-20T02:21:07.799Z,0
2022-08-20T02:22:07.230Z,0
2022-08-20T02:23:07.658Z,0
2022-08-20T02:24:07.087Z,0
2022-08-20T02:25:07.141Z,0.119
2022-08-20T02:26:07.595Z,0.219
2022-08-20T02:27:07.667Z,0
2022-08-20T02:28:07.972Z,0
2022-08-20T02:29:07.486Z,0
2022-08-20T02:30:08.229Z,0.219
2022-08-20T02:31:07.514Z,0.109
2022-08-20T02:32:32.063Z,0
2022-08-20T02:33:07.459Z,0
2022-08-20T02:34:21.859Z,0
2022-08-20T02:35:07.125Z,0.109
2022-08-20T02:36:21.316Z,0
2022-08-20T02:37:07.616Z,0
2022-08-20T02:38:06.911Z,0
2022-08-20T02:39:06.997Z,0
2022-08-20T02:40:07.400Z,0
2022-08-20T02:41:07.873Z,0
2022-08-20T02:42:07.023Z,0
2022-08-20T02:43:07.284Z,0
2022-08-20T02:44:21.498Z,0
2022-08-20T02:45:08.137Z,0
2022-08-20T02:46:07.726Z,0
2022-08-20T02:47:06.887Z,0
2022-08-20T02:48:07.257Z,0
2022-08-20T02:49:07.616Z,0.219
2022-08-20T02:50:07.934Z,0
2022-08-20T02:51:07.587Z,0.219
2022-08-20T02:52:07.616Z,0.109
2022-08-20T02:53:07.360Z,0.340
2022-08-20T02:54:07.609Z,0
2022-08-20T02:55:07.961Z,0.219
2022-08-20T02:56:07.087Z,0
2022-08-20T02:57:07.704Z,0
2022-08-20T02:58:07.356Z,0
2022-08-20T02:59:07.413Z,0
2022-08-20T03:00:08.460Z,0
2022-08-20T03:01:07.428Z,0
2022-08-20T03:02:07.334Z,0
2022-08-20T03:03:07.780Z,0
2022-08-20T03:04:07.179Z,0
2022-08-20T03:05:08.131Z,0
2022-08-20T03:06:07.552Z,0
2022-08-20T03:07:07.650Z,0
2022-08-20T03:08:07.045Z,0.109
2022-08-20T03:09:07.861Z,0
2022-08-20T03:10:07.296Z,0
2022-08-20T03:11:07.783Z,0.109
2022-08-20T03:12:07.264Z,0
2022-08-20T03:13:07.730Z,0
2022-08-20T03:14:07.226Z,0.109
2022-08-20T03:15:07.970Z,0
2022-08-20T03:16:07.295Z,0
2022-08-20T03:17:07.546Z,0.109
2022-08-20T03:18:07.023Z,0
2022-08-20T03:19:07.105Z,0.109
2022-08-20T03:20:07.479Z,0
2022-08-20T03:21:07.524Z,0
2022-08-20T03:22:07.394Z,0
2022-08-20T03:23:07.627Z,0.109
2022-08-20T03:24:07.821Z,0
2022-08-20T03:25:07.307Z,0.109
2022-08-20T03:26:08.003Z,0.109
2022-08-20T03:27:07.155Z,0.109
2022-08-20T03:28:07.620Z,0
2022-08-20T03:29:07.770Z,0
2022-08-20T03:30:07.668Z,0
2022-08-20T03:31:07.096Z,0.109
2022-08-20T03:32:07.939Z,0.109
2022-08-20T03:33:07.629Z,0.109
2022-08-20T03:34:07.970Z,0.109
2022-08-20T03:35:07.309Z,0
2022-08-20T03:36:07.681Z,0
2022-08-20T03:37:07.859Z,0
2022-08-20T03:38:07.370Z,0
2022-08-20T03:39:07.605Z,0
2022-08-20T03:40:08.338Z,0
2022-08-20T03:41:07.708Z,0.109
2022-08-20T03:42:07.793Z,0
2022-08-20T03:43:07.255Z,0
2022-08-20T03:44:07.699Z,0
2022-08-20T03:45:08.173Z,0
2022-08-20T03:46:07.588Z,0
2022-08-20T03:47:07.654Z,0
2022-08-20T03:48:07.284Z,13600
2022-08-20T03:49:07.500Z,13600
2022-08-20T03:50:07.994Z,13600
2022-08-20T03:51:07.364Z,13600
2022-08-20T03:52:07.767Z,13600
2022-08-20T03:53:06.996Z,13600
2022-08-20T03:54:07.243Z,13600
2022-08-20T03:55:07.525Z,13600
2022-08-20T03:56:07.502Z,13600
2022-08-20T03:57:12.494Z,0
2022-08-20T03:58:07.485Z,0
2022-08-20T03:59:07.607Z,0
2022-08-20T04:00:08.158Z,0
2022-08-20T04:01:07.690Z,0.059
2022-08-20T04:02:08.040Z,0.680
2022-08-20T04:03:07.333Z,0.680
2022-08-20T04:04:12.391Z,1.240
2022-08-20T04:05:07.318Z,1.009
2022-08-20T04:06:07.615Z,1.190
2022-08-20T04:07:07.734Z,1.720
2022-08-20T04:08:07.208Z,2.650
2022-08-20T04:09:07.666Z,2.920
2022-08-20T04:10:07.118Z,3.859
2022-08-20T04:11:07.523Z,4.980
2022-08-20T04:12:07.642Z,6.360
2022-08-20T04:13:06.939Z,7.800
2022-08-20T04:14:07.432Z,9.630
2022-08-20T04:15:07.524Z,11.80
2022-08-20T04:16:07.558Z,14.46
2022-08-20T04:17:07.723Z,17.10
2022-08-20T04:18:07.176Z,20.29
2022-08-20T04:19:07.485Z,23.20
2022-08-20T04:20:07.799Z,26.20
2022-08-20T04:21:07.428Z,28.71
2022-08-20T04:22:07.722Z,31.54
2022-08-20T04:23:07.388Z,33.88
2022-08-20T04:24:07.645Z,36.52
2022-08-20T04:25:07.803Z,37.31
2022-08-20T04:26:06.916Z,37.72
2022-08-20T04:27:07.223Z,37.20
2022-08-20T04:28:07.444Z,37.52
2022-08-20T04:29:07.442Z,38.02
2022-08-20T04:30:07.648Z,39.16
2022-08-20T04:31:07.090Z,39.20
2022-08-20T04:32:07.321Z,40
2022-08-20T04:33:07.014Z,40.61
2022-08-20T04:34:07.141Z,40.84
2022-08-20T04:35:07.464Z,43.59
2022-08-20T04:36:07.535Z,46.5
2022-08-20T04:37:16.791Z,51.29
2022-08-20T04:38:07.429Z,56.5
2022-08-20T04:39:07.635Z,57.52
2022-08-20T04:40:07.842Z,54.79
2022-08-20T04:41:07.070Z,54.70
2022-08-20T04:42:07.182Z,58
2022-08-20T04:43:07.443Z,61.20
2022-08-20T04:44:07.778Z,62.70
2022-08-20T04:45:07.424Z,66.30
2022-08-20T04:46:07.073Z,70
2022-08-20T04:47:07.636Z,72.80
2022-08-20T04:48:11.678Z,75.69
2022-08-20T04:49:07.729Z,75
2022-08-20T04:50:07.862Z,67.40
2022-08-20T04:51:07.024Z,64.80
2022-08-20T04:52:07.558Z,57.90
2022-08-20T04:53:07.177Z,50.90
2022-08-20T04:54:07.483Z,47.45
2022-08-20T04:55:07.693Z,45.45
2022-08-20T04:56:07.135Z,58
2022-08-20T04:57:07.384Z,90
2022-08-20T04:58:07.815Z,127
2022-08-20T04:59:07.548Z,170
2022-08-20T05:00:07.862Z,220
2022-08-20T05:01:07.099Z,260
2022-08-20T05:02:07.285Z,288
2022-08-20T05:03:07.716Z,302
2022-08-20T05:04:07.338Z,315
2022-08-20T05:05:07.674Z,328
2022-08-20T05:06:07.516Z,348
2022-08-20T05:07:07.434Z,377
2022-08-20T05:08:07.464Z,408
2022-08-20T05:09:07.525Z,430
2022-08-20T05:10:07.625Z,446
2022-08-20T05:11:33.854Z,465
2022-08-20T05:12:07.471Z,482
2022-08-20T05:13:07.645Z,501
2022-08-20T05:14:08.048Z,520
2022-08-20T05:15:07.958Z,560
2022-08-20T05:16:07.240Z,600
2022-08-20T05:17:07.558Z,650
2022-08-20T05:18:07.696Z,700
2022-08-20T05:19:07.816Z,740
2022-08-20T05:20:08.124Z,768
2022-08-20T05:21:07.550Z,784
2022-08-20T05:22:07.738Z,785.7
2022-08-20T05:23:07.808Z,791
2022-08-20T05:24:08.098Z,791.2
2022-08-20T05:25:07.382Z,775
2022-08-20T05:26:07.515Z,750
2022-08-20T05:27:07.413Z,742
2022-08-20T05:28:07.033Z,770
2022-08-20T05:29:07.313Z,820
2022-08-20T05:30:07.570Z,870
2022-08-20T05:31:07.779Z,930
2022-08-20T05:32:07.373Z,920
2022-08-20T05:33:07.935Z,870
2022-08-20T05:34:07.004Z,840
2022-08-20T05:35:07.671Z,804
2022-08-20T05:36:07.146Z,796
2022-08-20T05:37:07.752Z,815
2022-08-20T05:38:07.857Z,833
2022-08-20T05:39:07.431Z,842.7
2022-08-20T05:40:07.889Z,848
2022-08-20T05:41:07.351Z,880
2022-08-20T05:42:07.596Z,930
2022-08-20T05:43:07.715Z,1000
2022-08-20T05:44:07.809Z,1052
2022-08-20T05:45:11.302Z,1062
2022-08-20T05:46:07.083Z,1100
2022-08-20T05:47:07.647Z,1200
2022-08-20T05:48:07.905Z,1400
2022-08-20T05:49:07.563Z,1600
2022-08-20T05:50:07.771Z,1640
2022-08-20T05:51:07.304Z,1580
2022-08-20T05:52:06.945Z,1600
2022-08-20T05:53:07.433Z,1780
2022-08-20T05:54:07.819Z,1829
2022-08-20T05:55:07.078Z,1824
2022-08-20T05:56:07.516Z,1900
2022-08-20T05:57:07.832Z,2000
2022-08-20T05:58:07.381Z,2200
2022-08-20T05:59:07.434Z,2400
2022-08-20T06:00:08.653Z,2500
2022-08-20T06:01:07.740Z,2700
2022-08-20T06:02:07.318Z,2900
2022-08-20T06:03:07.909Z,3000
2022-08-20T06:04:07.226Z,3480
2022-08-20T06:05:07.802Z,3500
2022-08-20T06:06:18.073Z,3300
2022-08-20T06:07:07.671Z,3160
2022-08-20T06:08:08.178Z,3000
2022-08-20T06:09:07.596Z,2971
2022-08-20T06:10:08.093Z,2940
2022-08-20T06:11:07.414Z,2945
2022-08-20T06:12:07.526Z,3000
2022-08-20T06:13:07.105Z,3170
2022-08-20T06:14:07.425Z,3300
2022-08-20T06:15:08.041Z,3300
2022-08-20T06:16:07.770Z,3200
2022-08-20T06:17:07.780Z,3190
2022-08-20T06:18:16.608Z,3000
2022-08-20T06:19:11.437Z,3000
2022-08-20T06:20:08.141Z,2700
2022-08-20T06:21:07.627Z,2700
2022-08-20T06:22:17.858Z,2736
2022-08-20T06:23:07.531Z,2744
2022-08-20T06:24:07.718Z,2770
2022-08-20T06:25:07.431Z,2810
2022-08-20T06:26:07.620Z,2860
2022-08-20T06:27:08.159Z,2900
2022-08-20T06:28:07.575Z,3000
2022-08-20T06:29:07.267Z,3200
2022-08-20T06:30:07.963Z,3400
2022-08-20T06:31:07.573Z,3600
2022-08-20T06:32:07.938Z,3800
2022-08-20T06:33:07.484Z,3900
2022-08-20T06:34:07.175Z,3881
2022-08-20T06:35:07.882Z,3900
2022-08-20T06:36:07.240Z,4000
2022-08-20T06:37:07.565Z,4200
2022-08-20T06:38:07.642Z,4400
2022-08-20T06:39:07.918Z,4530
2022-08-20T06:40:07.651Z,4581
2022-08-20T06:41:07.357Z,4610
2022-08-20T06:42:07.634Z,4690
2022-08-20T06:43:07.243Z,4800
2022-08-20T06:44:07.614Z,4880
2022-08-20T06:45:08.326Z,4900
2022-08-20T06:46:07.645Z,5120
2022-08-20T06:47:08.011Z,5162
2022-08-20T06:48:08.006Z,5151
2022-08-20T06:49:07.595Z,5159
2022-08-20T06:50:08.104Z,5163
2022-08-20T06:51:07.871Z,5100
2022-08-20T06:52:06.972Z,4900
2022-08-20T06:53:07.991Z,4700
2022-08-20T06:54:07.188Z,4500
2022-08-20T06:55:07.734Z,4499
2022-08-20T06:56:07.420Z,4530
2022-08-20T06:57:07.723Z,4580
2022-08-20T06:58:07.352Z,4600
2022-08-20T06:59:07.502Z,4760
2022-08-20T07:00:08.672Z,4840
2022-08-20T07:01:09.818Z,4870
2022-08-20T07:02:07.477Z,4920
2022-08-20T07:03:08.093Z,5000
2022-08-20T07:04:07.352Z,5100
2022-08-20T07:05:07.648Z,5100
2022-08-20T07:06:07.946Z,5230
2022-08-20T07:07:07.116Z,5210
2022-08-20T07:08:07.461Z,5180
2022-08-20T07:09:07.739Z,5200
2022-08-20T07:10:07.296Z,5000
2022-08-20T07:11:07.439Z,5000
2022-08-20T07:12:07.648Z,5200
2022-08-20T07:13:07.111Z,4900
2022-08-20T07:14:07.580Z,4600
2022-08-20T07:15:07.487Z,4000
2022-08-20T07:16:15.014Z,4210
2022-08-20T07:17:09.597Z,4200
2022-08-20T07:18:07.780Z,4000
2022-08-20T07:19:07.325Z,4900
2022-08-20T07:20:08.081Z,5100
2022-08-20T07:21:07.400Z,5000
2022-08-20T07:22:07.561Z,4880
2022-08-20T07:23:07.721Z,4900
2022-08-20T07:24:07.164Z,5000
2022-08-20T07:25:07.723Z,5080
2022-08-20T07:26:07.345Z,5030
2022-08-20T07:27:07.723Z,5000
2022-08-20T07:28:07.361Z,5000
2022-08-20T07:29:07.933Z,5000
2022-08-20T07:30:12.214Z,6300
2022-08-20T07:31:13.387Z,6300
2022-08-20T07:32:07.536Z,6100
2022-08-20T07:33:07.124Z,6100
2022-08-20T07:34:07.303Z,6300
2022-08-20T07:35:07.739Z,6000
2022-08-20T07:36:07.219Z,7000
2022-08-20T07:37:07.601Z,7400
2022-08-20T07:38:07.329Z,7000
2022-08-20T07:39:07.622Z,8200
2022-08-20T07:40:07.901Z,8000
2022-08-20T07:41:07.285Z,7900
2022-08-20T07:42:07.730Z,8000
2022-08-20T07:43:07.095Z,8600
2022-08-20T07:44:07.318Z,9000
2022-08-20T07:45:08.242Z,9600
2022-08-20T07:46:08.590Z,9000
2022-08-20T07:47:06.965Z,10000
2022-08-20T07:48:07.546Z,10000
2022-08-20T07:49:07.096Z,0
2022-08-20T07:50:07.480Z,0
2022-08-20T07:51:07.843Z,0
2022-08-20T07:52:07.426Z,0
2022-08-20T07:53:08.062Z,0
2022-08-20T07:54:07.772Z,0
2022-08-20T07:55:07.569Z,0
2022-08-20T07:56:07.676Z,0
2022-08-20T07:57:07.489Z,0
2022-08-20T07:58:07.073Z,0
2022-08-20T07:59:07.428Z,0
2022-08-20T08:00:08.872Z,0
2022-08-20T08:01:07.932Z,0
2022-08-20T08:02:07.625Z,0
2022-08-20T08:03:06.959Z,0
2022-08-20T08:04:07.240Z,0
2022-08-20T08:05:07.674Z,0
2022-08-20T08:06:07.179Z,0
2022-08-20T08:07:07.573Z,0
2022-08-20T08:08:07.668Z,0
2022-08-20T08:09:07.092Z,0
2022-08-20T08:10:07.629Z,20000
2022-08-20T08:11:07.321Z,0
2022-08-20T08:12:07.909Z,0
2022-08-20T08:13:07.615Z,0
2022-08-20T08:14:07.960Z,20000
2022-08-20T08:15:07.486Z,0
2022-08-20T08:16:07.854Z,0
2022-08-20T08:17:07.448Z,0
2022-08-20T08:18:08.155Z,0
2022-08-20T08:19:07.292Z,10000
2022-08-20T08:20:07.582Z,0
2022-08-20T08:21:07.865Z,0
2022-08-20T08:22:07.159Z,0
2022-08-20T08:23:07.445Z,0
2022-08-20T08:24:06.934Z,0
2022-08-20T08:25:07.612Z,0
2022-08-20T08:26:06.910Z,0
2022-08-20T08:27:07.309Z,0
2022-08-20T08:28:07.718Z,0
2022-08-20T08:29:07.179Z,22000
2022-08-20T08:30:08.020Z,0
2022-08-20T08:31:07.388Z,0
2022-08-20T08:32:07.757Z,30000
2022-08-20T08:33:07.300Z,30000
2022-08-20T08:34:07.687Z,0
2022-08-20T08:35:07.153Z,0
2022-08-20T08:36:07.425Z,10000
2022-08-20T08:37:07.808Z,10000
2022-08-20T08:38:07.374Z,0
2022-08-20T08:39:08.185Z,0
2022-08-20T08:40:07.643Z,0
2022-08-20T08:41:07.420Z,0
2022-08-20T08:42:07.918Z,0
2022-08-20T08:43:07.939Z,0
2022-08-20T08:44:07.566Z,0
2022-08-20T08:45:07.284Z,0
2022-08-20T08:46:07.131Z,0
2022-08-20T08:47:07.624Z,0
2022-08-20T08:48:07.336Z,0
2022-08-20T08:49:06.978Z,0
2022-08-20T08:50:07.361Z,0
2022-08-20T08:51:07.777Z,0
2022-08-20T08:52:07.461Z,0
2022-08-20T08:53:07.235Z,0
2022-08-20T08:54:07.372Z,0
2022-08-20T08:55:08.091Z,0
2022-08-20T08:56:08.070Z,0
2022-08-20T08:57:07.672Z,0
2022-08-20T08:58:16.717Z,0
2022-08-20T08:59:07.760Z,0
2022-08-20T09:00:07.726Z,0
2022-08-20T09:01:13.706Z,0
2022-08-20T09:02:07.874Z,0
2022-08-20T09:03:07.606Z,0
2022-08-20T09:04:07.869Z,0
2022-08-20T09:05:07.654Z,0
2022-08-20T09:06:07.419Z,0
2022-08-20T09:07:07.614Z,0
2022-08-20T09:08:07.131Z,0
2022-08-20T09:09:08.039Z,30000
2022-08-20T09:10:07.706Z,0
2022-08-20T09:11:07.403Z,0
2022-08-20T09:12:07.736Z,0
2022-08-20T09:13:07.020Z,3000
2022-08-20T09:14:07.546Z,0
2022-08-20T09:15:08.397Z,0
2022-08-20T09:16:07.177Z,0
2022-08-20T09:17:07.702Z,0
2022-08-20T09:18:07.294Z,0
2022-08-20T09:19:07.224Z,0
2022-08-20T09:20:08.061Z,0
2022-08-20T09:21:07.720Z,20000
2022-08-20T09:22:07.690Z,0
2022-08-20T09:23:07.159Z,10000
2022-08-20T09:24:07.255Z,0
2022-08-20T09:25:07.834Z,0
2022-08-20T09:26:07.215Z,20000
2022-08-20T09:27:07.766Z,20000
2022-08-20T09:28:07.584Z,0
2022-08-20T09:29:07.338Z,30000
2022-08-20T09:30:08.271Z,30000
2022-08-20T09:31:07.146Z,35000
2022-08-20T09:32:07.825Z,30000
2022-08-20T09:33:07.808Z,30000
2022-08-20T09:34:07.430Z,30000
2022-08-20T09:35:09.472Z,29000
2022-08-20T09:36:31.346Z,30000
2022-08-20T09:37:07.288Z,30000
2022-08-20T09:38:07.782Z,0
2022-08-20T09:39:07.498Z,0
2022-08-20T09:40:08.460Z,27000
2022-08-20T09:41:07.164Z,20000
2022-08-20T09:42:07.396Z,0
2022-08-20T09:43:15.722Z,0
2022-08-20T09:44:07.241Z,0
2022-08-20T09:45:10.954Z,0
2022-08-20T09:46:07.160Z,30000
2022-08-20T09:47:07.952Z,0
2022-08-20T09:48:10.466Z,20000
2022-08-20T09:49:10.503Z,23000
2022-08-20T09:50:07.378Z,20000
2022-08-20T09:51:08.094Z,20000
2022-08-20T09:52:07.572Z,0
2022-08-20T09:53:07.544Z,0
2022-08-20T09:54:07.915Z,0
2022-08-20T09:55:07.500Z,30000
2022-08-20T09:56:07.915Z,32000
2022-08-20T09:57:07.068Z,30000
2022-08-20T09:58:07.378Z,30000
2022-08-20T09:59:07.687Z,30000
2022-08-20T10:00:07.912Z,34300
2022-08-20T10:01:07.704Z,30000
2022-08-20T10:02:07.611Z,0
2022-08-20T10:03:07.664Z,0
2022-08-20T10:04:07.850Z,0
2022-08-20T10:05:07.717Z,10000
2022-08-20T10:06:07.240Z,10000
2022-08-20T10:07:07.299Z,9000
2022-08-20T10:08:07.507Z,8000
2022-08-20T10:09:07.792Z,8000
2022-08-20T10:10:07.078Z,8000
2022-08-20T10:11:07.355Z,0
2022-08-20T10:12:07.506Z,0
2022-08-20T10:13:07.665Z,0
2022-08-20T10:14:07.311Z,0
2022-08-20T10:15:07.611Z,0
2022-08-20T10:16:07.225Z,0
2022-08-20T10:17:07.858Z,0
2022-08-20T10:18:07.314Z,0
2022-08-20T10:19:07.090Z,9000
2022-08-20T10:20:07.706Z,10000
2022-08-20T10:21:07.362Z,0
2022-08-20T10:22:07.806Z,0
2022-08-20T10:23:07.170Z,0
2022-08-20T10:24:07.747Z,0
2022-08-20T10:25:07.327Z,0
2022-08-20T10:26:07.810Z,8900
2022-08-20T10:27:07.309Z,8700
2022-08-20T10:28:07.544Z,0
2022-08-20T10:29:07.904Z,0
2022-08-20T10:30:07.654Z,0
2022-08-20T10:31:08.047Z,0
2022-08-20T10:32:07.727Z,0
2022-08-20T10:33:07.522Z,0
2022-08-20T10:34:07.806Z,0
2022-08-20T10:35:07.549Z,6000
2022-08-20T10:36:07.973Z,6000
2022-08-20T10:37:07.529Z,6000
2022-08-20T10:38:07.898Z,0
2022-08-20T10:39:07.369Z,0
2022-08-20T10:40:07.638Z,6000
2022-08-20T10:41:07.168Z,7000
2022-08-20T10:42:07.347Z,0
2022-08-20T10:43:07.663Z,0
2022-08-20T10:44:07.331Z,0
2022-08-20T10:45:07.884Z,9500
2022-08-20T10:46:07.401Z,10000
2022-08-20T10:47:07.798Z,0
2022-08-20T10:48:07.310Z,0
2022-08-20T10:49:07.470Z,0
2022-08-20T10:50:07.565Z,0
2022-08-20T10:51:07.932Z,0
2022-08-20T10:52:07.466Z,0
2022-08-20T10:53:07.432Z,10000
2022-08-20T10:54:08.212Z,8000
2022-08-20T10:55:07.845Z,0
2022-08-20T10:56:07.327Z,7000
2022-08-20T10:57:07.304Z,7000
2022-08-20T10:58:07.663Z,0
2022-08-20T10:59:07.968Z,10000
2022-08-20T11:00:08.002Z,0
2022-08-20T11:01:07.372Z,0
2022-08-20T11:02:07.924Z,10000
2022-08-20T11:03:08.162Z,0
2022-08-20T11:04:07.417Z,0
2022-08-20T11:05:07.167Z,0
2022-08-20T11:06:07.862Z,0
2022-08-20T11:07:07.465Z,0
2022-08-20T11:08:07.631Z,11000
2022-08-20T11:09:09.693Z,0
2022-08-20T11:10:11.765Z,10000
2022-08-20T11:11:07.533Z,0
2022-08-20T11:12:07.417Z,10000
2022-08-20T11:14:07.946Z,0
2022-08-20T11:15:09.395Z,10000
2022-08-20T11:16:07.417Z,0
2022-08-20T11:17:07.859Z,0
2022-08-20T11:18:07.570Z,0
2022-08-20T11:19:07.799Z,0
2022-08-20T11:20:07.270Z,0
2022-08-20T11:21:07.670Z,0
2022-08-20T11:22:07.234Z,0
2022-08-20T11:23:07.943Z,10000
2022-08-20T11:24:07.474Z,0
2022-08-20T11:25:07.681Z,0
2022-08-20T11:26:07.435Z,20300
2022-08-20T11:27:08.013Z,0
2022-08-20T11:28:07.352Z,10000
2022-08-20T11:29:08.022Z,0
2022-08-20T11:30:07.986Z,10000
2022-08-20T11:31:08.039Z,0
2022-08-20T11:32:07.474Z,10000
2022-08-20T11:33:07.297Z,10000
2022-08-20T11:34:12.507Z,0
2022-08-20T11:35:38.240Z,0
2022-08-20T11:36:07.724Z,0
2022-08-20T11:37:07.334Z,0
2022-08-20T11:38:07.591Z,0
2022-08-20T11:39:07.586Z,0
2022-08-20T11:40:07.962Z,10000
2022-08-20T11:41:07.495Z,10000
2022-08-20T11:42:07.977Z,10000
2022-08-20T11:43:16.242Z,10000
2022-08-20T11:44:20.790Z,21000
2022-08-20T11:45:07.686Z,20000
2022-08-20T11:46:07.732Z,10000
2022-08-20T11:47:07.254Z,10000
2022-08-20T11:48:08.168Z,0
2022-08-20T11:49:07.683Z,10000
2022-08-20T11:50:07.309Z,9000
2022-08-20T11:51:07.763Z,0
2022-08-20T11:52:07.018Z,0
2022-08-20T11:53:08.020Z,0
2022-08-20T11:54:07.471Z,0
2022-08-20T11:55:07.495Z,10000
2022-08-20T11:56:07.820Z,15000
2022-08-20T11:57:07.630Z,0
2022-08-20T11:58:07.736Z,0
2022-08-20T11:59:07.406Z,0
2022-08-20T12:00:08.435Z,0
2022-08-20T12:01:07.425Z,0
2022-08-20T12:02:12.795Z,0
2022-08-20T12:03:09.221Z,0
2022-08-20T12:04:07.372Z,0
2022-08-20T12:05:07.768Z,0
2022-08-20T12:06:07.303Z,0
2022-08-20T12:07:07.975Z,10000
2022-08-20T12:08:07.361Z,11000
2022-08-20T12:09:07.975Z,11000
2022-08-20T12:10:07.548Z,10000
2022-08-20T12:11:07.688Z,12000
2022-08-20T12:12:07.226Z,10000
2022-08-20T12:13:07.547Z,0
2022-08-20T12:14:07.460Z,20000
2022-08-20T12:15:07.934Z,20000
2022-08-20T12:16:07.677Z,0
2022-08-20T12:17:08.101Z,0
2022-08-20T12:18:07.883Z,0
2022-08-20T12:19:07.611Z,10000
2022-08-20T12:20:08.009Z,10000
2022-08-20T12:21:07.573Z,0
2022-08-20T12:22:24.698Z,0
2022-08-20T12:23:08.180Z,0
2022-08-20T12:24:21.656Z,0
2022-08-20T12:25:07.319Z,0
2022-08-20T12:26:07.787Z,8000
2022-08-20T12:27:07.402Z,0
2022-08-20T12:28:07.664Z,0
2022-08-20T12:29:07.453Z,0
2022-08-20T12:30:08.142Z,0
2022-08-20T12:31:08.671Z,10000
2022-08-20T12:32:07.415Z,10200
2022-08-20T12:33:08.035Z,10000
2022-08-20T12:34:07.535Z,10000
2022-08-20T12:35:07.845Z,0
2022-08-20T12:36:07.256Z,9800
2022-08-20T12:37:07.840Z,0
2022-08-20T12:38:07.899Z,0
2022-08-20T12:39:07.483Z,0
2022-08-20T12:40:07.485Z,9000
2022-08-20T12:41:07.211Z,0
2022-08-20T12:42:07.413Z,16000
2022-08-20T12:43:07.649Z,16000
2022-08-20T12:44:08.056Z,0
2022-08-20T12:45:07.510Z,0
2022-08-20T12:46:07.217Z,0
2022-08-20T12:47:07.628Z,10000
2022-08-20T12:48:07.195Z,10000
2022-08-20T12:49:07.595Z,10000
2022-08-20T12:50:08.348Z,10000
2022-08-20T12:51:07.778Z,0
2022-08-20T12:52:08.306Z,10000
2022-08-20T12:53:07.556Z,20000
2022-08-20T12:54:07.577Z,20000
2022-08-20T12:55:07.511Z,20000
2022-08-20T12:56:07.946Z,20000
2022-08-20T12:57:08.172Z,0
2022-08-20T12:58:07.467Z,10000
2022-08-20T12:59:07.795Z,0
2022-08-20T13:00:07.874Z,0
2022-08-20T13:01:07.598Z,0
2022-08-20T13:02:14.013Z,0
2022-08-20T13:03:07.474Z,20000
2022-08-20T13:04:08.243Z,20000
2022-08-20T13:05:07.602Z,20000
2022-08-20T13:06:07.252Z,20000
2022-08-20T13:07:08.070Z,10000
2022-08-20T13:08:08.093Z,10000
2022-08-20T13:09:07.581Z,0
2022-08-20T13:10:08.239Z,0
2022-08-20T13:11:08.045Z,0
2022-08-20T13:12:07.853Z,0
2022-08-20T13:13:07.995Z,30000
2022-08-20T13:14:07.468Z,0
2022-08-20T13:15:08.049Z,20000
2022-08-20T13:16:08.001Z,0
2022-08-20T13:17:07.395Z,20000
2022-08-20T13:18:07.459Z,20000
2022-08-20T13:19:08.082Z,30000
2022-08-20T13:20:07.894Z,30000
2022-08-20T13:21:07.614Z,36000
2022-08-20T13:22:07.291Z,30000
2022-08-20T13:23:07.694Z,30000
2022-08-20T13:24:07.360Z,0
2022-08-20T13:25:07.619Z,29000
2022-08-20T13:26:07.270Z,29000
2022-08-20T13:27:08.148Z,20000
2022-08-20T13:28:07.793Z,0
2022-08-20T13:29:07.696Z,0
2022-08-20T13:30:07.935Z,0
2022-08-20T13:31:07.536Z,0
2022-08-20T13:32:07.586Z,0
2022-08-20T13:33:07.792Z,0
2022-08-20T13:34:07.523Z,0
2022-08-20T13:35:08.038Z,8100
2022-08-20T13:36:08.119Z,0
2022-08-20T13:37:07.721Z,0
2022-08-20T13:38:07.411Z,20000
2022-08-20T13:39:08.004Z,20000
2022-08-20T13:40:07.784Z,0
2022-08-20T13:41:07.435Z,0
2022-08-20T13:42:07.842Z,30000
2022-08-20T13:43:07.749Z,30000
2022-08-20T13:44:07.938Z,30000
2022-08-20T13:45:08.228Z,20000
2022-08-20T13:46:08.032Z,20000
2022-08-20T13:47:07.655Z,26800
2022-08-20T13:48:10.065Z,20000
2022-08-20T13:49:07.833Z,0
2022-08-20T13:50:07.659Z,0
2022-08-20T13:51:08.481Z,8000
2022-08-20T13:52:07.451Z,0
2022-08-20T13:53:07.971Z,0
2022-08-20T13:54:07.809Z,29000